Disclaimer

Please do not use the information listed here in-flight or in-navigation, as they are not provided to us by the airports but are provided by volunteers, so they might be outdated.

Search


Regions


Airport information page

Radio informations:
Aerodrome flight information system (AFIS) - 126.4 MHz

Airport informations:
Latitude: 54° 57' 51.72" N
Longitude: 009° 47' 30.23" E
Elevation: 24 feet - 7 meters
Operating hours: Remarks
Operating agency: Civil government, landing fees and diplomatic clearance may be required
Timezone: UTC+1(+2DT) - Last Sunday in March to last Sunday in October
Fuel: Jet A1, without icing nhibitor.

100/130 MIL Spec, low lead, aviation gasoline (BLUE)

Runway information:
14/32 - 5895 x 98 feet< - >1797 x 30 meters

Recent METARs:
EKSB 210150Z AUTO 10024G34KT 9999NDV OVC021/// 06/02 Q1021
EKSB 210220Z AUTO 10022G32KT 9999NDV BKN019/// 06/02 Q1021
EKSB 210250Z AUTO 10024KT 9999NDV OVC019/// 06/02 Q1021

Airport on the map: